sensor_id;sensor_type;location;lat;lon;timestamp;temperature;humidity
80779;SHT30;70170;47.856;10.956;2024-02-28T00:01:32;2.67;99.99
80779;SHT30;70170;47.856;10.956;2024-02-28T00:03:57;2.68;99.99
80779;SHT30;70170;47.856;10.956;2024-02-28T00:06:23;2.61;99.99
80779;SHT30;70170;47.856;10.956;2024-02-28T00:08:48;2.63;99.99
80779;SHT30;70170;47.856;10.956;2024-02-28T00:11:16;2.73;99.99
80779;SHT30;70170;47.856;10.956;2024-02-28T00:13:41;2.73;99.99
80779;SHT30;70170;47.856;10.956;2024-02-28T00:16:06;2.70;99.99
80779;SHT30;70170;47.856;10.956;2024-02-28T00:18:32;2.71;99.99
80779;SHT30;70170;47.856;10.956;2024-02-28T00:20:57;2.76;99.99
80779;SHT30;70170;47.856;10.956;2024-02-28T00:23:24;2.84;99.99
80779;SHT30;70170;47.856;10.956;2024-02-28T00:25:49;2.87;99.99
80779;SHT30;70170;47.856;10.956;2024-02-28T00:28:14;2.94;99.99
80779;SHT30;70170;47.856;10.956;2024-02-28T00:30:40;2.98;99.99
80779;SHT30;70170;47.856;10.956;2024-02-28T00:33:06;3.01;99.99
80779;SHT30;70170;47.856;10.956;2024-02-28T00:35:32;3.07;99.99
80779;SHT30;70170;47.856;10.956;2024-02-28T00:38:01;3.15;99.99
80779;SHT30;70170;47.856;10.956;2024-02-28T00:40:26;3.15;99.99
80779;SHT30;70170;47.856;10.956;2024-02-28T00:42:53;3.18;99.99
80779;SHT30;70170;47.856;10.956;2024-02-28T00:45:19;3.16;99.99
80779;SHT30;70170;47.856;10.956;2024-02-28T00:47:44;3.29;99.99
80779;SHT30;70170;47.856;10.956;2024-02-28T00:50:09;3.26;99.99
80779;SHT30;70170;47.856;10.956;2024-02-28T00:52:36;3.25;99.99
80779;SHT30;70170;47.856;10.956;2024-02-28T00:55:02;3.33;99.99
80779;SHT30;70170;47.856;10.956;2024-02-28T00:57:28;3.36;99.99
80779;SHT30;70170;47.856;10.956;2024-02-28T00:59:53;3.33;99.99
80779;SHT30;70170;47.856;10.956;2024-02-28T01:02:20;3.25;99.99
80779;SHT30;70170;47.856;10.956;2024-02-28T01:04:45;3.16;99.99
80779;SHT30;70170;47.856;10.956;2024-02-28T01:07:11;3.12;99.99
80779;SHT30;70170;47.856;10.956;2024-02-28T01:09:36;3.13;99.99
80779;SHT30;70170;47.856;10.956;2024-02-28T01:12:01;3.12;99.99
80779;SHT30;70170;47.856;10.956;2024-02-28T01:14:26;3.09;99.99
80779;SHT30;70170;47.856;10.956;2024-02-28T01:16:52;3.08;99.99
80779;SHT30;70170;47.856;10.956;2024-02-28T01:19:17;3.04;99.99
80779;SHT30;70170;47.856;10.956;2024-02-28T01:21:43;3.04;99.99
80779;SHT30;70170;47.856;10.956;2024-02-28T01:24:08;3.01;99.99
80779;SHT30;70170;47.856;10.956;2024-02-28T01:26:33;2.98;99.99
80779;SHT30;70170;47.856;10.956;2024-02-28T01:28:59;3.05;99.99
80779;SHT30;70170;47.856;10.956;2024-02-28T01:31:24;3.02;99.99
80779;SHT30;70170;47.856;10.956;2024-02-28T01:33:49;3.07;99.99
80779;SHT30;70170;47.856;10.956;2024-02-28T01:36:15;2.97;99.99
80779;SHT30;70170;47.856;10.956;2024-02-28T01:38:40;2.99;99.99
80779;SHT30;70170;47.856;10.956;2024-02-28T01:41:05;3.12;99.99
80779;SHT30;70170;47.856;10.956;2024-02-28T01:43:31;3.09;99.99
80779;SHT30;70170;47.856;10.956;2024-02-28T01:45:59;3.04;99.99
80779;SHT30;70170;47.856;10.956;2024-02-28T01:48:26;3.16;99.99
80779;SHT30;70170;47.856;10.956;2024-02-28T01:50:51;3.15;99.99
80779;SHT30;70170;47.856;10.956;2024-02-28T01:53:16;3.08;99.99
80779;SHT30;70170;47.856;10.956;2024-02-28T01:55:42;3.01;99.99
80779;SHT30;70170;47.856;10.956;2024-02-28T01:58:07;2.98;99.99
80779;SHT30;70170;47.856;10.956;2024-02-28T02:00:33;2.94;99.99
80779;SHT30;70170;47.856;10.956;2024-02-28T02:03:00;2.99;99.99
80779;SHT30;70170;47.856;10.956;2024-02-28T02:05:26;2.99;99.99
80779;SHT30;70170;47.856;10.956;2024-02-28T02:07:51;3.02;99.99
80779;SHT30;70170;47.856;10.956;2024-02-28T02:10:17;3.07;99.99
80779;SHT30;70170;47.856;10.956;2024-02-28T02:12:43;3.11;99.99
80779;SHT30;70170;47.856;10.956;2024-02-28T02:15:08;3.12;99.99
80779;SHT30;70170;47.856;10.956;2024-02-28T02:17:33;3.08;99.99
80779;SHT30;70170;47.856;10.956;2024-02-28T02:19:59;3.05;99.99
80779;SHT30;70170;47.856;10.956;2024-02-28T02:22:27;3.04;99.99
80779;SHT30;70170;47.856;10.956;2024-02-28T02:24:54;3.02;99.99
80779;SHT30;70170;47.856;10.956;2024-02-28T02:27:20;3.02;99.99
80779;SHT30;70170;47.856;10.956;2024-02-28T02:29:46;3.02;99.99
80779;SHT30;70170;47.856;10.956;2024-02-28T02:32:11;3.05;99.99
80779;SHT30;70170;47.856;10.956;2024-02-28T02:34:36;3.05;99.99
80779;SHT30;70170;47.856;10.956;2024-02-28T02:37:02;3.05;99.99
80779;SHT30;70170;47.856;10.956;2024-02-28T02:39:27;3.08;99.99
80779;SHT30;70170;47.856;10.956;2024-02-28T02:41:53;3.08;99.99
80779;SHT30;70170;47.856;10.956;2024-02-28T02:44:18;3.15;99.99
80779;SHT30;70170;47.856;10.956;2024-02-28T02:46:44;3.18;99.99
80779;SHT30;70170;47.856;10.956;2024-02-28T02:49:09;3.16;99.99
80779;SHT30;70170;47.856;10.956;2024-02-28T02:51:34;3.16;99.99
80779;SHT30;70170;47.856;10.956;2024-02-28T02:54:00;3.18;99.99
80779;SHT30;70170;47.856;10.956;2024-02-28T02:56:25;3.15;99.99
80779;SHT30;70170;47.856;10.956;2024-02-28T02:58:50;3.13;99.99
80779;SHT30;70170;47.856;10.956;2024-02-28T03:01:16;3.11;99.99
80779;SHT30;70170;47.856;10.956;2024-02-28T03:03:41;3.04;99.99
80779;SHT30;70170;47.856;10.956;2024-02-28T03:06:09;3.07;99.99
80779;SHT30;70170;47.856;10.956;2024-02-28T03:08:35;3.07;99.99
80779;SHT30;70170;47.856;10.956;2024-02-28T03:11:00;3.07;99.99
80779;SHT30;70170;47.856;10.956;2024-02-28T03:13:26;3.12;99.99
80779;SHT30;70170;47.856;10.956;2024-02-28T03:15:51;3.09;99.99
80779;SHT30;70170;47.856;10.956;2024-02-28T03:18:16;3.05;99.99
80779;SHT30;70170;47.856;10.956;2024-02-28T03:20:42;3.05;99.99
80779;SHT30;70170;47.856;10.956;2024-02-28T03:23:07;3.16;99.99
80779;SHT30;70170;47.856;10.956;2024-02-28T03:25:33;3.25;99.99
80779;SHT30;70170;47.856;10.956;2024-02-28T03:27:59;3.22;99.99
80779;SHT30;70170;47.856;10.956;2024-02-28T03:30:25;3.25;99.99
80779;SHT30;70170;47.856;10.956;2024-02-28T03:32:50;3.27;99.99
80779;SHT30;70170;47.856;10.956;2024-02-28T03:35:15;3.33;99.99
80779;SHT30;70170;47.856;10.956;2024-02-28T03:37:41;3.33;99.99
80779;SHT30;70170;47.856;10.956;2024-02-28T03:40:07;3.36;99.99
80779;SHT30;70170;47.856;10.956;2024-02-28T03:42:32;3.37;99.99
80779;SHT30;70170;47.856;10.956;2024-02-28T03:44:58;3.42;99.99
80779;SHT30;70170;47.856;10.956;2024-02-28T03:47:23;3.39;99.99
80779;SHT30;70170;47.856;10.956;2024-02-28T03:49:50;3.35;99.99
80779;SHT30;70170;47.856;10.956;2024-02-28T03:52:15;3.33;99.99
80779;SHT30;70170;47.856;10.956;2024-02-28T03:54:42;3.36;99.99
80779;SHT30;70170;47.856;10.956;2024-02-28T03:57:08;3.37;99.99
80779;SHT30;70170;47.856;10.956;2024-02-28T03:59:33;3.39;99.99
80779;SHT30;70170;47.856;10.956;2024-02-28T04:01:59;3.37;99.99
80779;SHT30;70170;47.856;10.956;2024-02-28T04:04:24;3.42;99.99
80779;SHT30;70170;47.856;10.956;2024-02-28T04:06:49;3.42;99.99
80779;SHT30;70170;47.856;10.956;2024-02-28T04:09:15;3.46;99.99
80779;SHT30;70170;47.856;10.956;2024-02-28T04:11:41;3.47;99.99
80779;SHT30;70170;47.856;10.956;2024-02-28T04:14:08;3.49;99.99
80779;SHT30;70170;47.856;10.956;2024-02-28T04:16:33;3.53;99.99
80779;SHT30;70170;47.856;10.956;2024-02-28T04:19:01;3.54;99.99
80779;SHT30;70170;47.856;10.956;2024-02-28T04:21:26;3.57;99.99
80779;SHT30;70170;47.856;10.956;2024-02-28T04:23:52;3.63;99.99
80779;SHT30;70170;47.856;10.956;2024-02-28T04:26:18;3.67;99.99
80779;SHT30;70170;47.856;10.956;2024-02-28T04:28:43;3.70;99.99
80779;SHT30;70170;47.856;10.956;2024-02-28T04:31:09;3.70;99.99
80779;SHT30;70170;47.856;10.956;2024-02-28T04:33:36;3.75;99.99
80779;SHT30;70170;47.856;10.956;2024-02-28T04:36:03;3.75;99.99
80779;SHT30;70170;47.856;10.956;2024-02-28T04:38:28;3.74;99.99
80779;SHT30;70170;47.856;10.956;2024-02-28T04:40:53;3.78;99.99
80779;SHT30;70170;47.856;10.956;2024-02-28T04:43:18;3.87;99.99
80779;SHT30;70170;47.856;10.956;2024-02-28T04:45:44;3.85;99.99
80779;SHT30;70170;47.856;10.956;2024-02-28T04:48:09;3.84;99.99
80779;SHT30;70170;47.856;10.956;2024-02-28T04:50:34;3.88;99.99
80779;SHT30;70170;47.856;10.956;2024-02-28T04:53:00;3.82;99.99
80779;SHT30;70170;47.856;10.956;2024-02-28T04:55:25;3.80;99.99
80779;SHT30;70170;47.856;10.956;2024-02-28T04:57:50;3.78;99.99
80779;SHT30;70170;47.856;10.956;2024-02-28T05:00:16;3.77;99.99
80779;SHT30;70170;47.856;10.956;2024-02-28T05:02:41;3.82;99.99
80779;SHT30;70170;47.856;10.956;2024-02-28T05:05:07;3.85;99.99
80779;SHT30;70170;47.856;10.956;2024-02-28T05:07:32;3.84;99.99
80779;SHT30;70170;47.856;10.956;2024-02-28T05:09:57;3.84;99.99
80779;SHT30;70170;47.856;10.956;2024-02-28T05:12:23;3.87;99.99
80779;SHT30;70170;47.856;10.956;2024-02-28T05:14:48;3.81;99.99
80779;SHT30;70170;47.856;10.956;2024-02-28T05:17:13;3.71;99.99
80779;SHT30;70170;47.856;10.956;2024-02-28T05:19:39;3.67;99.99
80779;SHT30;70170;47.856;10.956;2024-02-28T05:22:07;3.57;99.99
80779;SHT30;70170;47.856;10.956;2024-02-28T05:24:32;3.62;99.99
80779;SHT30;70170;47.856;10.956;2024-02-28T05:26:57;3.66;99.99
80779;SHT30;70170;47.856;10.956;2024-02-28T05:29:24;3.54;99.99
80779;SHT30;70170;47.856;10.956;2024-02-28T05:31:51;3.47;99.99
80779;SHT30;70170;47.856;10.956;2024-02-28T05:34:16;3.47;99.99
80779;SHT30;70170;47.856;10.956;2024-02-28T05:36:42;3.57;99.99
80779;SHT30;70170;47.856;10.956;2024-02-28T05:39:07;3.71;99.99
80779;SHT30;70170;47.856;10.956;2024-02-28T05:41:33;3.74;99.99
80779;SHT30;70170;47.856;10.956;2024-02-28T05:43:59;3.73;99.99
80779;SHT30;70170;47.856;10.956;2024-02-28T05:46:24;3.80;99.99
80779;SHT30;70170;47.856;10.956;2024-02-28T05:48:49;3.95;99.99
80779;SHT30;70170;47.856;10.956;2024-02-28T05:51:15;3.94;99.99
80779;SHT30;70170;47.856;10.956;2024-02-28T05:53:43;3.87;99.99
80779;SHT30;70170;47.856;10.956;2024-02-28T05:56:09;3.88;99.99
80779;SHT30;70170;47.856;10.956;2024-02-28T05:58:46;3.85;99.99
80779;SHT30;70170;47.856;10.956;2024-02-28T06:01:15;3.78;99.99
80779;SHT30;70170;47.856;10.956;2024-02-28T06:03:40;3.77;99.99
80779;SHT30;70170;47.856;10.956;2024-02-28T06:06:09;3.73;99.99
80779;SHT30;70170;47.856;10.956;2024-02-28T06:08:37;3.66;99.99
80779;SHT30;70170;47.856;10.956;2024-02-28T06:11:03;3.66;99.99
80779;SHT30;70170;47.856;10.956;2024-02-28T06:13:28;3.63;99.99
80779;SHT30;70170;47.856;10.956;2024-02-28T06:15:55;3.77;99.99
80779;SHT30;70170;47.856;10.956;2024-02-28T06:18:20;3.75;99.99
80779;SHT30;70170;47.856;10.956;2024-02-28T06:20:48;3.75;99.99
80779;SHT30;70170;47.856;10.956;2024-02-28T06:23:13;3.73;99.99
80779;SHT30;70170;47.856;10.956;2024-02-28T06:25:38;3.70;99.99
80779;SHT30;70170;47.856;10.956;2024-02-28T06:28:04;3.70;99.99
80779;SHT30;70170;47.856;10.956;2024-02-28T06:30:32;3.71;99.99
80779;SHT30;70170;47.856;10.956;2024-02-28T06:33:00;3.73;99.99
80779;SHT30;70170;47.856;10.956;2024-02-28T06:35:26;3.74;99.99
80779;SHT30;70170;47.856;10.956;2024-02-28T06:37:51;3.84;99.99
80779;SHT30;70170;47.856;10.956;2024-02-28T06:40:17;3.90;99.99
80779;SHT30;70170;47.856;10.956;2024-02-28T06:42:42;3.85;99.99
80779;SHT30;70170;47.856;10.956;2024-02-28T06:45:08;3.90;99.99
80779;SHT30;70170;47.856;10.956;2024-02-28T06:47:34;3.94;99.99
80779;SHT30;70170;47.856;10.956;2024-02-28T06:49:59;3.97;99.99
80779;SHT30;70170;47.856;10.956;2024-02-28T06:52:25;3.99;99.99
80779;SHT30;70170;47.856;10.956;2024-02-28T06:54:50;3.97;99.99
80779;SHT30;70170;47.856;10.956;2024-02-28T06:57:16;3.92;99.99
80779;SHT30;70170;47.856;10.956;2024-02-28T06:59:42;3.95;99.99
80779;SHT30;70170;47.856;10.956;2024-02-28T07:02:07;3.97;99.99
80779;SHT30;70170;47.856;10.956;2024-02-28T07:04:32;3.97;99.99
80779;SHT30;70170;47.856;10.956;2024-02-28T07:06:57;3.99;99.99
80779;SHT30;70170;47.856;10.956;2024-02-28T07:09:23;4.01;99.99
80779;SHT30;70170;47.856;10.956;2024-02-28T07:11:51;4.05;99.99
80779;SHT30;70170;47.856;10.956;2024-02-28T07:14:16;4.05;99.99
80779;SHT30;70170;47.856;10.956;2024-02-28T07:16:41;4.02;99.99
80779;SHT30;70170;47.856;10.956;2024-02-28T07:19:07;4.05;99.99
80779;SHT30;70170;47.856;10.956;2024-02-28T07:21:32;4.09;99.99
80779;SHT30;70170;47.856;10.956;2024-02-28T07:23:58;4.06;99.99
80779;SHT30;70170;47.856;10.956;2024-02-28T07:26:23;4.08;99.99
80779;SHT30;70170;47.856;10.956;2024-02-28T07:28:49;4.08;99.99
80779;SHT30;70170;47.856;10.956;2024-02-28T07:31:20;4.13;99.99
80779;SHT30;70170;47.856;10.956;2024-02-28T07:33:47;4.10;99.99
80779;SHT30;70170;47.856;10.956;2024-02-28T07:36:12;4.15;99.99
80779;SHT30;70170;47.856;10.956;2024-02-28T07:38:38;4.13;99.99
80779;SHT30;70170;47.856;10.956;2024-02-28T07:41:03;4.10;99.99
80779;SHT30;70170;47.856;10.956;2024-02-28T07:43:29;4.13;99.99
80779;SHT30;70170;47.856;10.956;2024-02-28T07:45:58;4.15;99.99
80779;SHT30;70170;47.856;10.956;2024-02-28T07:48:23;4.15;99.99
80779;SHT30;70170;47.856;10.956;2024-02-28T07:50:49;4.18;99.99
80779;SHT30;70170;47.856;10.956;2024-02-28T07:53:14;4.22;99.99
80779;SHT30;70170;47.856;10.956;2024-02-28T07:55:40;4.23;99.99
80779;SHT30;70170;47.856;10.956;2024-02-28T07:58:05;4.29;99.99
80779;SHT30;70170;47.856;10.956;2024-02-28T08:00:31;4.28;99.99
80779;SHT30;70170;47.856;10.956;2024-02-28T08:02:58;4.30;99.99
80779;SHT30;70170;47.856;10.956;2024-02-28T08:05:23;4.10;99.99
80779;SHT30;70170;47.856;10.956;2024-02-28T08:07:49;3.98;99.99
80779;SHT30;70170;47.856;10.956;2024-02-28T08:10:14;3.87;99.99
80779;SHT30;70170;47.856;10.956;2024-02-28T08:12:40;3.82;99.99
80779;SHT30;70170;47.856;10.956;2024-02-28T08:15:05;3.81;99.99
80779;SHT30;70170;47.856;10.956;2024-02-28T08:17:30;3.97;99.99
80779;SHT30;70170;47.856;10.956;2024-02-28T08:19:56;4.18;99.99
80779;SHT30;70170;47.856;10.956;2024-02-28T08:22:21;4.35;99.99
80779;SHT30;70170;47.856;10.956;2024-02-28T08:24:46;4.40;99.99
80779;SHT30;70170;47.856;10.956;2024-02-28T08:27:12;4.33;99.99
80779;SHT30;70170;47.856;10.956;2024-02-28T08:29:40;4.16;99.99
80779;SHT30;70170;47.856;10.956;2024-02-28T08:32:09;4.25;99.99
80779;SHT30;70170;47.856;10.956;2024-02-28T08:34:35;4.30;99.99
80779;SHT30;70170;47.856;10.956;2024-02-28T08:37:00;4.43;99.99
80779;SHT30;70170;47.856;10.956;2024-02-28T08:39:26;4.53;99.99
80779;SHT30;70170;47.856;10.956;2024-02-28T08:41:51;4.57;99.99
80779;SHT30;70170;47.856;10.956;2024-02-28T08:44:16;4.37;99.99
80779;SHT30;70170;47.856;10.956;2024-02-28T08:46:42;4.42;99.99
80779;SHT30;70170;47.856;10.956;2024-02-28T08:49:08;4.39;99.99
80779;SHT30;70170;47.856;10.956;2024-02-28T08:51:34;4.43;99.99
80779;SHT30;70170;47.856;10.956;2024-02-28T08:53:59;4.61;99.99
80779;SHT30;70170;47.856;10.956;2024-02-28T08:56:25;4.60;99.99
80779;SHT30;70170;47.856;10.956;2024-02-28T08:58:51;4.68;99.99
80779;SHT30;70170;47.856;10.956;2024-02-28T09:01:16;4.74;99.99
80779;SHT30;70170;47.856;10.956;2024-02-28T09:03:42;4.87;99.99
80779;SHT30;70170;47.856;10.956;2024-02-28T09:06:07;4.87;99.99
80779;SHT30;70170;47.856;10.956;2024-02-28T09:08:32;5.01;99.99
80779;SHT30;70170;47.856;10.956;2024-02-28T09:10:58;5.05;99.99
80779;SHT30;70170;47.856;10.956;2024-02-28T09:13:23;5.12;99.99
80779;SHT30;70170;47.856;10.956;2024-02-28T09:15:48;4.89;99.99
80779;SHT30;70170;47.856;10.956;2024-02-28T09:18:14;5.01;99.99
80779;SHT30;70170;47.856;10.956;2024-02-28T09:20:39;4.98;99.99
80779;SHT30;70170;47.856;10.956;2024-02-28T09:23:04;4.92;99.99
80779;SHT30;70170;47.856;10.956;2024-02-28T09:25:32;4.94;99.99
80779;SHT30;70170;47.856;10.956;2024-02-28T09:27:57;5.07;99.99
80779;SHT30;70170;47.856;10.956;2024-02-28T09:30:25;4.95;99.99
80779;SHT30;70170;47.856;10.956;2024-02-28T09:32:50;4.92;99.99
80779;SHT30;70170;47.856;10.956;2024-02-28T09:35:15;4.91;99.99
80779;SHT30;70170;47.856;10.956;2024-02-28T09:37:41;4.85;99.99
80779;SHT30;70170;47.856;10.956;2024-02-28T09:40:09;4.81;99.99
80779;SHT30;70170;47.856;10.956;2024-02-28T09:42:35;4.85;99.99
80779;SHT30;70170;47.856;10.956;2024-02-28T09:45:00;4.89;99.99
80779;SHT30;70170;47.856;10.956;2024-02-28T09:47:26;4.68;99.99
80779;SHT30;70170;47.856;10.956;2024-02-28T09:49:53;4.70;99.99
80779;SHT30;70170;47.856;10.956;2024-02-28T09:52:20;4.54;99.99
80779;SHT30;70170;47.856;10.956;2024-02-28T09:54:45;4.45;99.99
80779;SHT30;70170;47.856;10.956;2024-02-28T09:57:11;4.40;99.99
80779;SHT30;70170;47.856;10.956;2024-02-28T09:59:37;4.42;99.99
80779;SHT30;70170;47.856;10.956;2024-02-28T10:02:04;4.45;99.99
80779;SHT30;70170;47.856;10.956;2024-02-28T10:04:32;4.47;99.99
80779;SHT30;70170;47.856;10.956;2024-02-28T10:07:10;4.49;99.99
80779;SHT30;70170;47.856;10.956;2024-02-28T10:09:37;4.64;99.99
80779;SHT30;70170;47.856;10.956;2024-02-28T10:12:02;4.68;99.99
80779;SHT30;70170;47.856;10.956;2024-02-28T10:14:28;4.83;99.99
80779;SHT30;70170;47.856;10.956;2024-02-28T10:16:55;5.01;99.99
80779;SHT30;70170;47.856;10.956;2024-02-28T10:19:20;4.99;99.99
80779;SHT30;70170;47.856;10.956;2024-02-28T10:21:46;5.11;99.99
80779;SHT30;70170;47.856;10.956;2024-02-28T10:24:12;5.15;99.99
80779;SHT30;70170;47.856;10.956;2024-02-28T10:26:46;5.15;99.99
80779;SHT30;70170;47.856;10.956;2024-02-28T10:29:25;5.22;99.99
80779;SHT30;70170;47.856;10.956;2024-02-28T10:31:51;5.30;99.99
80779;SHT30;70170;47.856;10.956;2024-02-28T10:34:17;5.39;99.69
80779;SHT30;70170;47.856;10.956;2024-02-28T10:36:44;5.42;99.61
80779;SHT30;70170;47.856;10.956;2024-02-28T10:39:11;5.37;99.95
80779;SHT30;70170;47.856;10.956;2024-02-28T10:41:40;5.35;99.78
80779;SHT30;70170;47.856;10.956;2024-02-28T10:44:05;5.42;99.96
80779;SHT30;70170;47.856;10.956;2024-02-28T10:46:31;5.48;99.99
80779;SHT30;70170;47.856;10.956;2024-02-28T10:48:57;5.54;99.51
80779;SHT30;70170;47.856;10.956;2024-02-28T10:51:24;5.58;99.30
80779;SHT30;70170;47.856;10.956;2024-02-28T10:54:02;5.56;98.46
80779;SHT30;70170;47.856;10.956;2024-02-28T10:56:28;5.54;98.39
80779;SHT30;70170;47.856;10.956;2024-02-28T10:58:57;5.63;97.49
80779;SHT30;70170;47.856;10.956;2024-02-28T11:01:23;5.64;97.79
80779;SHT30;70170;47.856;10.956;2024-02-28T11:03:50;5.61;97.87
80779;SHT30;70170;47.856;10.956;2024-02-28T11:06:19;5.81;97.09
80779;SHT30;70170;47.856;10.956;2024-02-28T11:08:47;5.99;96.54
80779;SHT30;70170;47.856;10.956;2024-02-28T11:11:18;6.12;96.30
80779;SHT30;70170;47.856;10.956;2024-02-28T11:13:56;6.22;95.47
80779;SHT30;70170;47.856;10.956;2024-02-28T11:16:32;6.30;95.45
80779;SHT30;70170;47.856;10.956;2024-02-28T11:18:57;6.49;94.95
80779;SHT30;70170;47.856;10.956;2024-02-28T11:21:24;6.50;94.84
80779;SHT30;70170;47.856;10.956;2024-02-28T11:23:51;6.41;95.61
80779;SHT30;70170;47.856;10.956;2024-02-28T11:26:16;6.41;94.97
80779;SHT30;70170;47.856;10.956;2024-02-28T11:28:43;6.30;96.49
80779;SHT30;70170;47.856;10.956;2024-02-28T11:31:09;6.18;96.90
80779;SHT30;70170;47.856;10.956;2024-02-28T11:33:36;6.13;96.89
80779;SHT30;70170;47.856;10.956;2024-02-28T11:36:01;6.16;96.56
80779;SHT30;70170;47.856;10.956;2024-02-28T11:38:28;6.16;96.25
80779;SHT30;70170;47.856;10.956;2024-02-28T11:40:54;6.15;96.18
80779;SHT30;70170;47.856;10.956;2024-02-28T11:43:21;6.26;95.70
80779;SHT30;70170;47.856;10.956;2024-02-28T11:45:46;6.34;95.51
80779;SHT30;70170;47.856;10.956;2024-02-28T11:48:14;6.37;95.08
80779;SHT30;70170;47.856;10.956;2024-02-28T11:50:40;6.44;94.91
80779;SHT30;70170;47.856;10.956;2024-02-28T11:53:06;6.51;94.85
80779;SHT30;70170;47.856;10.956;2024-02-28T11:55:32;6.56;94.66
80779;SHT30;70170;47.856;10.956;2024-02-28T11:57:58;6.47;94.77
80779;SHT30;70170;47.856;10.956;2024-02-28T12:00:23;6.25;94.66
80779;SHT30;70170;47.856;10.956;2024-02-28T12:02:48;6.05;95.75
80779;SHT30;70170;47.856;10.956;2024-02-28T12:05:14;6.13;96.42
80779;SHT30;70170;47.856;10.956;2024-02-28T12:07:39;6.18;96.24
80779;SHT30;70170;47.856;10.956;2024-02-28T12:10:06;6.22;95.55
80779;SHT30;70170;47.856;10.956;2024-02-28T12:12:33;6.25;95.76
80779;SHT30;70170;47.856;10.956;2024-02-28T12:15:00;6.26;95.17
80779;SHT30;70170;47.856;10.956;2024-02-28T12:17:25;6.29;95.28
80779;SHT30;70170;47.856;10.956;2024-02-28T12:19:52;6.41;95.26
80779;SHT30;70170;47.856;10.956;2024-02-28T12:22:17;6.53;94.93
80779;SHT30;70170;47.856;10.956;2024-02-28T12:24:42;6.63;94.57
80779;SHT30;70170;47.856;10.956;2024-02-28T12:27:08;6.53;93.72
80779;SHT30;70170;47.856;10.956;2024-02-28T12:29:33;6.51;93.67
80779;SHT30;70170;47.856;10.956;2024-02-28T12:31:59;6.64;93.46
80779;SHT30;70170;47.856;10.956;2024-02-28T12:34:24;6.67;93.55
80779;SHT30;70170;47.856;10.956;2024-02-28T12:36:49;6.67;93.45
80779;SHT30;70170;47.856;10.956;2024-02-28T12:39:15;6.43;94.25
80779;SHT30;70170;47.856;10.956;2024-02-28T12:41:40;6.23;95.22
80779;SHT30;70170;47.856;10.956;2024-02-28T12:44:06;6.26;94.90
80779;SHT30;70170;47.856;10.956;2024-02-28T12:46:35;6.11;95.27
80779;SHT30;70170;47.856;10.956;2024-02-28T12:49:00;6.06;95.65
80779;SHT30;70170;47.856;10.956;2024-02-28T12:51:55;6.01;96.28
80779;SHT30;70170;47.856;10.956;2024-02-28T12:54:20;5.99;95.93
80779;SHT30;70170;47.856;10.956;2024-02-28T12:56:46;5.84;96.40
80779;SHT30;70170;47.856;10.956;2024-02-28T12:59:12;5.71;96.45
80779;SHT30;70170;47.856;10.956;2024-02-28T13:01:38;5.64;97.21
80779;SHT30;70170;47.856;10.956;2024-02-28T13:04:03;5.67;97.35
80779;SHT30;70170;47.856;10.956;2024-02-28T13:06:29;5.68;97.62
80779;SHT30;70170;47.856;10.956;2024-02-28T13:08:54;5.68;97.10
80779;SHT30;70170;47.856;10.956;2024-02-28T13:11:23;5.58;97.01
80779;SHT30;70170;47.856;10.956;2024-02-28T13:13:49;5.47;97.33
80779;SHT30;70170;47.856;10.956;2024-02-28T13:16:17;5.47;98.01
80779;SHT30;70170;47.856;10.956;2024-02-28T13:18:44;5.43;97.61
80779;SHT30;70170;47.856;10.956;2024-02-28T13:21:10;5.36;98.13
80779;SHT30;70170;47.856;10.956;2024-02-28T13:23:35;5.32;98.36
80779;SHT30;70170;47.856;10.956;2024-02-28T13:26:02;5.23;98.32
80779;SHT30;70170;47.856;10.956;2024-02-28T13:28:27;5.16;98.93
80779;SHT30;70170;47.856;10.956;2024-02-28T13:30:57;5.12;98.79
80779;SHT30;70170;47.856;10.956;2024-02-28T13:33:22;5.08;99.19
80779;SHT30;70170;47.856;10.956;2024-02-28T13:35:48;5.11;99.34
80779;SHT30;70170;47.856;10.956;2024-02-28T13:38:13;5.12;99.06
80779;SHT30;70170;47.856;10.956;2024-02-28T13:40:39;5.04;99.67
80779;SHT30;70170;47.856;10.956;2024-02-28T13:43:05;5.01;99.88
80779;SHT30;70170;47.856;10.956;2024-02-28T13:45:30;4.98;99.99
80779;SHT30;70170;47.856;10.956;2024-02-28T13:47:55;4.91;99.45
80779;SHT30;70170;47.856;10.956;2024-02-28T13:50:21;4.94;99.70
80779;SHT30;70170;47.856;10.956;2024-02-28T13:52:47;4.94;99.40
80779;SHT30;70170;47.856;10.956;2024-02-28T13:55:12;4.94;99.46
80779;SHT30;70170;47.856;10.956;2024-02-28T13:57:38;5.07;99.62
80779;SHT30;70170;47.856;10.956;2024-02-28T14:00:03;5.07;99.07
80779;SHT30;70170;47.856;10.956;2024-02-28T14:02:32;5.11;98.73
80779;SHT30;70170;47.856;10.956;2024-02-28T14:04:57;5.15;98.94
80779;SHT30;70170;47.856;10.956;2024-02-28T14:07:22;5.11;98.73
80779;SHT30;70170;47.856;10.956;2024-02-28T14:09:48;5.04;99.26
80779;SHT30;70170;47.856;10.956;2024-02-28T14:12:13;5.04;98.96
80779;SHT30;70170;47.856;10.956;2024-02-28T14:14:39;4.98;99.20
80779;SHT30;70170;47.856;10.956;2024-02-28T14:17:05;4.89;99.00
80779;SHT30;70170;47.856;10.956;2024-02-28T14:19:30;4.85;98.84
80779;SHT30;70170;47.856;10.956;2024-02-28T14:21:56;4.92;99.47
80779;SHT30;70170;47.856;10.956;2024-02-28T14:24:21;4.85;99.17
80779;SHT30;70170;47.856;10.956;2024-02-28T14:26:47;4.85;99.27
80779;SHT30;70170;47.856;10.956;2024-02-28T14:29:12;4.89;98.97
80779;SHT30;70170;47.856;10.956;2024-02-28T14:31:37;4.92;99.18
80779;SHT30;70170;47.856;10.956;2024-02-28T14:34:02;4.95;98.92
80779;SHT30;70170;47.856;10.956;2024-02-28T14:36:30;4.89;98.82
80779;SHT30;70170;47.856;10.956;2024-02-28T14:38:55;4.89;98.93
80779;SHT30;70170;47.856;10.956;2024-02-28T14:41:21;4.98;99.15
80779;SHT30;70170;47.856;10.956;2024-02-28T14:43:47;4.91;99.15
80779;SHT30;70170;47.856;10.956;2024-02-28T14:46:12;4.81;99.14
80779;SHT30;70170;47.856;10.956;2024-02-28T14:48:38;4.80;99.41
80779;SHT30;70170;47.856;10.956;2024-02-28T14:51:04;4.75;99.87
80779;SHT30;70170;47.856;10.956;2024-02-28T14:53:29;4.78;99.91
80779;SHT30;70170;47.856;10.956;2024-02-28T14:55:55;4.85;99.87
80779;SHT30;70170;47.856;10.956;2024-02-28T14:58:20;4.83;99.33
80779;SHT30;70170;47.856;10.956;2024-02-28T15:00:45;4.78;99.81
80779;SHT30;70170;47.856;10.956;2024-02-28T15:03:12;4.71;99.99
80779;SHT30;70170;47.856;10.956;2024-02-28T15:05:37;4.68;99.99
80779;SHT30;70170;47.856;10.956;2024-02-28T15:08:05;4.63;99.99
80779;SHT30;70170;47.856;10.956;2024-02-28T15:10:31;4.57;99.99
80779;SHT30;70170;47.856;10.956;2024-02-28T15:12:58;4.50;99.99
80779;SHT30;70170;47.856;10.956;2024-02-28T15:15:24;4.47;99.99
80779;SHT30;70170;47.856;10.956;2024-02-28T15:17:49;4.45;99.99
80779;SHT30;70170;47.856;10.956;2024-02-28T15:20:15;4.45;99.99
80779;SHT30;70170;47.856;10.956;2024-02-28T15:22:40;4.47;99.99